Time;durP1;ratioP1;P1;durP2;ratioP2;P2;SDS_P1;SDS_P2;PMS_P1;PMS_P2;Temp;Humidity;BMP_temperature;BMP_pressure;BME280_temperature;BME280_humidity;BME280_pressure;Samples;Min_cycle;Max_cycle;Signal;HPM_P1;HPM_P2
2022/11/21 00:01:30;;;;;;;30.95;13.30;;;;;;;3.68;100.00;100558.41;2612847;36;20515;-54
2022/11/21 00:03:58;;;;;;;30.00;13.95;;;;;;;3.78;100.00;100540.03;2615638;31;20030;-52
2022/11/21 00:06:29;;;;;;;32.17;13.38;;;;;;;3.71;100.00;100528.09;2615690;36;20085;-55
2022/11/21 00:08:58;;;;;;;28.80;14.02;;;;;;;3.60;100.00;100526.13;2615371;31;20035;-57
2022/11/21 00:11:28;;;;;;;27.70;13.52;;;;;;;3.45;100.00;100531.47;2614795;36;20030;-54
2022/11/21 00:13:56;;;;;;;32.00;14.38;;;;;;;3.60;100.00;100532.28;2615300;31;20030;-54
2022/11/21 00:16:26;;;;;;;29.65;14.73;;;;;;;3.53;100.00;100527.47;2617513;36;20061;-52
2022/11/21 00:18:54;;;;;;;27.48;13.90;;;;;;;3.52;100.00;100539.94;2615381;36;20432;-53
2022/11/21 00:21:22;;;;;;;32.25;14.38;;;;;;;3.41;100.00;100547.75;2614852;36;20027;-55
2022/11/21 00:23:54;;;;;;;28.75;14.25;;;;;;;3.32;100.00;100549.19;2614333;31;20583;-55
2022/11/21 00:26:22;;;;;;;31.20;13.48;;;;;;;3.38;100.00;100553.25;2614647;36;20035;-57
2022/11/21 00:28:50;;;;;;;24.60;13.82;;;;;;;3.46;100.00;100557.16;2613663;36;20034;-53
2022/11/21 00:31:24;;;;;;;30.48;14.75;;;;;;;3.44;100.00;100561.69;2613793;36;20038;-53
2022/11/21 00:34:01;;;;;;;33.38;15.13;;;;;;;3.32;100.00;100560.66;2613762;36;20026;-56
2022/11/21 00:36:29;;;;;;;31.83;14.02;;;;;;;3.37;100.00;100567.50;2614611;31;20030;-53
2022/11/21 00:39:00;;;;;;;31.05;14.30;;;;;;;3.45;100.00;100562.56;2615363;36;20043;-53
2022/11/21 00:41:29;;;;;;;27.60;13.63;;;;;;;3.34;100.00;100563.22;2611908;36;20039;-54
2022/11/21 00:43:57;;;;;;;28.48;13.32;;;;;;;3.46;100.00;100565.13;2613504;36;20042;-56
2022/11/21 00:46:25;;;;;;;26.40;14.18;;;;;;;3.50;100.00;100574.63;2614434;36;20023;-61
2022/11/21 00:48:54;;;;;;;28.50;13.93;;;;;;;3.50;100.00;100573.75;2614708;31;20064;-54
2022/11/21 00:51:22;;;;;;;26.95;12.57;;;;;;;3.49;100.00;100572.91;2612847;36;20098;-56
2022/11/21 00:53:50;;;;;;;29.52;14.32;;;;;;;3.53;100.00;100578.03;2612014;36;20523;-56
2022/11/21 00:56:21;;;;;;;33.20;15.05;;;;;;;3.48;100.00;100581.84;2611452;31;20057;-51
2022/11/21 00:58:49;;;;;;;26.83;13.50;;;;;;;3.48;100.00;100565.88;2611614;36;20057;-53
2022/11/21 01:01:18;;;;;;;32.00;14.48;;;;;;;3.58;100.00;100570.59;2612013;36;20104;-54
2022/11/21 01:03:47;;;;;;;29.42;14.75;;;;;;;3.73;100.00;100572.28;2611728;36;20034;-52
2022/11/21 01:06:17;;;;;;;29.08;13.98;;;;;;;3.71;100.00;100568.88;2611432;36;20080;-53
2022/11/21 01:08:46;;;;;;;28.92;14.70;;;;;;;3.71;100.00;100574.19;2612381;31;20038;-53
2022/11/21 01:11:15;;;;;;;;;;;;;;;3.67;100.00;100581.50;2613864;31;20030;-55
2022/11/21 01:13:47;;;;;;;27.48;12.75;;;;;;;3.75;100.00;100583.69;2613942;36;19981;-55
2022/11/21 01:16:20;;;;;;;31.67;14.30;;;;;;;3.61;100.00;100575.75;2615597;36;20034;-55
2022/11/21 01:18:49;;;;;;;30.08;12.50;;;;;;;3.49;100.00;100582.72;2614978;31;20026;-56
2022/11/21 01:21:19;;;;;;;29.90;13.15;;;;;;;3.47;100.00;100582.78;2614296;36;20034;-56
2022/11/21 01:23:48;;;;;;;30.80;13.40;;;;;;;3.63;100.00;100597.78;2614791;36;20034;-54
2022/11/21 01:26:18;;;;;;;29.23;13.88;;;;;;;3.71;100.00;100592.84;2614665;36;20467;-56
2022/11/21 01:28:49;;;;;;;28.30;13.25;;;;;;;3.77;100.00;100583.56;2614014;31;20034;-56
2022/11/21 01:31:20;;;;;;;31.83;14.13;;;;;;;3.88;100.00;100586.41;2612609;36;20038;-54
2022/11/21 01:33:48;;;;;;;30.67;14.13;;;;;;;3.58;100.00;100579.44;2614101;36;20061;-55
2022/11/21 01:36:18;;;;;;;29.93;13.73;;;;;;;3.41;100.00;100564.53;2614018;36;20034;-56
2022/11/21 01:38:50;;;;;;;29.45;13.70;;;;;;;3.43;100.00;100565.31;2614892;36;20030;-58
2022/11/21 01:41:21;;;;;;;30.92;13.75;;;;;;;3.39;100.00;100569.13;2614129;36;20037;-55
2022/11/21 01:43:52;;;;;;;27.30;12.82;;;;;;;3.30;100.00;100567.06;2614987;36;20057;-59
2022/11/21 01:46:21;;;;;;;32.80;13.57;;;;;;;3.21;100.00;100562.28;2615782;36;20427;-57
2022/11/21 01:48:55;;;;;;;31.25;13.65;;;;;;;3.08;100.00;100568.38;2615957;36;20562;-56
2022/11/21 01:51:29;;;;;;;24.27;12.80;;;;;;;3.09;100.00;100556.81;2616748;36;20038;-60
2022/11/21 01:54:03;;;;;;;26.60;13.02;;;;;;;3.07;100.00;100545.41;2616587;36;20034;-54
2022/11/21 01:56:38;;;;;;;25.92;12.52;;;;;;;3.13;100.00;100554.78;2617160;31;20459;-55
2022/11/21 01:59:13;;;;;;;27.15;13.50;;;;;;;2.86;100.00;100557.38;2617210;36;20058;-54
2022/11/21 02:01:41;;;;;;;25.08;12.48;;;;;;;2.74;100.00;100549.19;2616352;36;20022;-53
2022/11/21 02:04:10;;;;;;;25.70;11.98;;;;;;;2.76;100.00;100551.75;2616492;36;20034;-54
2022/11/21 02:06:39;;;;;;;27.15;13.45;;;;;;;2.88;100.00;100539.50;2616926;36;20022;-55
2022/11/21 02:09:08;;;;;;;28.02;12.20;;;;;;;2.86;100.00;100544.09;2616603;36;20532;-58
2022/11/21 02:11:39;;;;;;;;;;;;;;;2.87;100.00;100541.34;2616545;36;20424;-55
2022/11/21 02:14:10;;;;;;;26.08;11.63;;;;;;;2.66;100.00;100551.44;2616914;36;20339;-55
2022/11/21 02:16:40;;;;;;;26.00;12.32;;;;;;;2.63;100.00;100554.28;2616013;36;20034;-58
2022/11/21 02:19:12;;;;;;;30.42;12.02;;;;;;;2.64;100.00;100556.00;2613882;36;20030;-54
2022/11/21 02:21:47;;;;;;;27.48;12.35;;;;;;;2.67;100.00;100550.50;2614620;36;20034;-51
2022/11/21 02:24:24;;;;;;;28.55;12.07;;;;;;;2.51;100.00;100561.19;2616143;36;20022;-53
2022/11/21 02:26:55;;;;;;;26.08;12.38;;;;;;;2.49;100.00;100548.94;2616350;36;20459;-55
2022/11/21 02:29:23;;;;;;;25.75;10.68;;;;;;;2.30;100.00;100549.19;2616467;36;20030;-56
2022/11/21 02:31:52;;;;;;;25.80;11.75;;;;;;;2.23;100.00;100543.41;2612751;36;20041;-57
2022/11/21 02:34:20;;;;;;;33.03;13.73;;;;;;;2.04;100.00;100533.84;2616228;36;20034;-52
2022/11/21 02:36:49;;;;;;;28.42;13.43;;;;;;;2.17;100.00;100541.13;2615890;36;20042;-56
2022/11/21 02:39:22;;;;;;;27.92;12.55;;;;;;;2.14;100.00;100543.94;2615971;36;20034;-55
2022/11/21 02:42:05;;;;;;;31.25;13.13;;;;;;;2.03;100.00;100537.47;2616419;36;20692;-54
2022/11/21 02:44:41;;;;;;;26.98;12.68;;;;;;;1.96;100.00;100540.53;2616239;31;20023;-50
2022/11/21 02:47:10;;;;;;;27.67;13.10;;;;;;;1.98;100.00;100528.91;2615189;36;20034;-55
2022/11/21 02:49:48;;;;;;;29.20;13.23;;;;;;;1.78;100.00;100531.84;2617308;31;20023;-56
2022/11/21 02:52:17;;;;;;;35.75;14.73;;;;;;;1.80;100.00;100527.31;2616973;31;20030;-57
2022/11/21 02:54:45;;;;;;;34.88;13.70;;;;;;;2.09;100.00;100537.09;2616494;36;20042;-52
2022/11/21 02:57:16;;;;;;;35.17;13.70;;;;;;;2.01;100.00;100538.50;2615149;36;20039;-56
2022/11/21 02:59:44;;;;;;;31.30;14.18;;;;;;;2.00;100.00;100540.28;2615689;36;20022;-58
2022/11/21 03:02:14;;;;;;;29.10;13.40;;;;;;;1.86;100.00;100533.13;2614858;36;20023;-56
2022/11/21 03:04:42;;;;;;;35.08;13.45;;;;;;;1.64;100.00;100530.00;2615965;36;20027;-49
2022/11/21 03:07:10;;;;;;;32.22;13.70;;;;;;;1.86;100.00;100529.63;2616609;36;20097;-54
2022/11/21 03:09:39;;;;;;;34.22;14.18;;;;;;;1.72;100.00;100536.56;2616427;36;20030;-52
2022/11/21 03:12:08;;;;;;;42.70;14.93;;;;;;;1.89;100.00;100534.75;2616232;36;20041;-54
2022/11/21 03:14:39;;;;;;;74.00;15.27;;;;;;;1.87;100.00;100524.22;2616675;36;20114;-55
2022/11/21 03:17:07;;;;;;;35.80;14.60;;;;;;;1.91;100.00;100522.22;2614894;36;20041;-50
2022/11/21 03:19:36;;;;;;;53.20;15.43;;;;;;;1.80;100.00;100514.91;2616120;36;20033;-51
2022/11/21 03:22:05;;;;;;;56.05;14.18;;;;;;;1.79;100.00;100515.84;2616332;36;20022;-54
2022/11/21 03:24:33;;;;;;;45.83;14.07;;;;;;;1.80;100.00;100509.59;2616260;36;20037;-57
2022/11/21 03:27:01;;;;;;;45.95;13.90;;;;;;;1.83;100.00;100509.41;2616502;36;20035;-55
2022/11/21 03:29:30;;;;;;;42.90;14.38;;;;;;;1.85;100.00;100501.38;2615822;36;20038;-56
2022/11/21 03:32:01;;;;;;;44.22;12.40;;;;;;;1.75;100.00;100495.72;2616524;36;20439;-55
2022/11/21 03:34:29;;;;;;;61.25;14.50;;;;;;;1.73;100.00;100490.50;2617089;31;20031;-49
2022/11/21 03:36:57;;;;;;;44.83;12.03;;;;;;;1.81;100.00;100494.50;2616997;36;20401;-54
2022/11/21 03:39:26;;;;;;;52.97;13.27;;;;;;;1.86;100.00;100503.09;2616633;36;20065;-58
2022/11/21 03:41:54;;;;;;;30.90;12.20;;;;;;;1.97;100.00;100505.09;2616062;36;20555;-56
2022/11/21 03:44:22;;;;;;;53.67;13.23;;;;;;;1.89;100.00;100509.06;2616329;36;20434;-53
2022/11/21 03:46:51;;;;;;;31.38;12.20;;;;;;;2.08;100.00;100508.84;2615858;36;20041;-54
2022/11/21 03:49:22;;;;;;;53.55;13.10;;;;;;;2.00;100.00;100521.69;2616060;36;20027;-53
2022/11/21 03:51:50;;;;;;;56.13;12.88;;;;;;;1.80;100.00;100514.06;2616690;36;20045;-57
2022/11/21 03:54:18;;;;;;;30.33;12.15;;;;;;;2.05;100.00;100509.03;2615998;36;20022;-56
2022/11/21 03:56:46;;;;;;;54.08;12.80;;;;;;;1.87;100.00;100510.94;2616570;31;20023;-55
2022/11/21 03:59:15;;;;;;;35.10;12.35;;;;;;;1.95;100.00;100507.00;2616332;36;20586;-57
2022/11/21 04:01:43;;;;;;;45.55;11.65;;;;;;;1.86;100.00;100516.34;2615952;36;20023;-53
2022/11/21 04:04:11;;;;;;;34.22;11.77;;;;;;;2.07;100.00;100517.72;2616080;36;20040;-53
2022/11/21 04:06:42;;;;;;;24.25;11.55;;;;;;;2.08;100.00;100515.97;2614519;36;20025;-58
2022/11/21 04:09:11;;;;;;;26.23;11.00;;;;;;;2.26;100.00;100514.84;2616713;36;20418;-53
2022/11/21 04:11:39;;;;;;;35.33;11.88;;;;;;;2.28;100.00;100518.28;2615526;36;20034;-50
2022/11/21 04:14:07;;;;;;;45.42;12.43;;;;;;;2.28;100.00;100509.44;2616640;36;20027;-59
2022/11/21 04:16:35;;;;;;;86.68;14.82;;;;;;;2.03;100.00;100513.56;2616014;36;20038;-57
2022/11/21 04:19:04;;;;;;;32.35;11.30;;;;;;;2.20;100.00;100522.34;2615011;36;20046;-53
2022/11/21 04:21:32;;;;;;;73.50;13.55;;;;;;;2.21;100.00;100516.06;2615594;36;20030;-55
2022/11/21 04:24:03;;;;;;;53.15;13.43;;;;;;;2.32;100.00;100510.97;2616285;36;20038;-54
2022/11/21 04:26:31;;;;;;;37.42;13.50;;;;;;;2.30;100.00;100517.31;2615482;31;20030;-56
2022/11/21 04:29:00;;;;;;;31.05;11.90;;;;;;;2.35;100.00;100510.78;2615767;36;20027;-52
2022/11/21 04:31:28;;;;;;;45.70;11.82;;;;;;;2.32;100.00;100503.00;2614482;36;20023;-53
2022/11/21 04:33:56;;;;;;;79.15;14.73;;;;;;;1.95;100.00;100507.00;2614867;36;20034;-57
2022/11/21 04:36:24;;;;;;;48.70;12.07;;;;;;;1.95;100.00;100497.22;2615352;36;20046;-54
2022/11/21 04:38:53;;;;;;;66.07;11.38;;;;;;;1.88;100.00;100490.56;2615710;31;20062;-56
2022/11/21 04:41:24;;;;;;;28.63;10.18;;;;;;;2.13;100.00;100483.81;2614682;36;20031;-52
2022/11/21 04:43:52;;;;;;;60.92;12.43;;;;;;;2.02;100.00;100477.34;2616732;36;20432;-55
2022/11/21 04:46:20;;;;;;;64.88;12.57;;;;;;;2.02;100.00;100476.50;2615258;36;20034;-56
2022/11/21 04:48:48;;;;;;;53.35;12.30;;;;;;;2.07;100.00;100477.91;2616121;36;20415;-51
2022/11/21 04:51:17;;;;;;;38.95;11.20;;;;;;;2.07;100.00;100482.38;2615948;36;20053;-56
2022/11/21 04:53:45;;;;;;;27.50;10.18;;;;;;;2.08;100.00;100481.44;2615580;36;20023;-53
2022/11/21 04:56:15;;;;;;;33.90;11.05;;;;;;;1.88;100.00;100474.66;2614915;36;20034;-54
2022/11/21 04:58:46;;;;;;;42.28;10.95;;;;;;;1.81;100.00;100481.25;2615349;36;20022;-57
2022/11/21 05:01:14;;;;;;;47.05;11.15;;;;;;;1.87;100.00;100484.41;2615933;36;20023;-55
2022/11/21 05:03:43;;;;;;;33.97;11.15;;;;;;;2.09;100.00;100472.50;2616365;36;20431;-54
2022/11/21 05:06:11;;;;;;;47.90;11.63;;;;;;;2.25;100.00;100478.63;2614689;36;20031;-55
2022/11/21 05:08:39;;;;;;;44.35;12.60;;;;;;;1.90;100.00;100476.28;2614802;36;20023;-56
2022/11/21 05:13:51;;;;;;;31.88;11.48;;;;;;;2.25;100.00;100467.16;2616138;36;20034;-54
2022/11/21 05:16:19;;;;;;;39.92;12.57;;;;;;;2.34;100.00;100458.66;2615424;31;20035;-57
2022/11/21 05:18:47;;;;;;;34.75;12.48;;;;;;;2.38;100.00;100433.59;2615868;36;20034;-54
2022/11/21 05:21:16;;;;;;;35.50;11.32;;;;;;;2.47;100.00;100444.59;2615838;36;20023;-54
2022/11/21 05:23:44;;;;;;;43.83;11.43;;;;;;;2.29;100.00;100447.44;2615969;36;20138;-54
2022/11/21 05:26:12;;;;;;;39.25;11.95;;;;;;;2.18;100.00;100444.56;2615359;31;20026;-54
2022/11/21 05:28:41;;;;;;;31.63;11.95;;;;;;;2.23;100.00;100447.81;2616496;36;20041;-51
2022/11/21 05:31:12;;;;;;;42.38;12.60;;;;;;;2.15;100.00;100445.63;2615548;36;20033;-58
2022/11/21 05:33:40;;;;;;;41.92;12.20;;;;;;;2.05;100.00;100444.47;2616015;36;20033;-57
2022/11/21 05:36:08;;;;;;;36.97;12.80;;;;;;;2.33;100.00;100441.00;2616127;36;20031;-55
2022/11/21 05:38:36;;;;;;;36.35;13.20;;;;;;;2.39;100.00;100432.66;2617037;36;20026;-54
2022/11/21 05:41:08;;;;;;;44.38;12.77;;;;;;;2.34;100.00;100432.09;2615149;54;20038;-53
2022/11/21 05:43:49;;;;;;;33.38;12.85;;;;;;;2.51;100.00;100430.19;2615864;36;20567;-54
2022/11/21 05:46:23;;;;;;;36.28;13.65;;;;;;;2.38;100.00;100430.94;2614430;36;20041;-54
2022/11/21 05:48:52;;;;;;;37.47;12.65;;;;;;;2.42;100.00;100437.75;2614980;36;20034;-54
2022/11/21 05:51:21;;;;;;;;;;;;;;;2.43;100.00;100433.31;2615720;36;20041;-52
2022/11/21 05:53:50;;;;;;;40.87;13.43;;;;;;;2.50;100.00;100436.44;2614748;36;19934;-54
2022/11/21 05:56:20;;;;;;;45.08;14.88;;;;;;;2.63;100.00;100440.03;2614630;36;20303;-57
2022/11/21 05:58:48;;;;;;;46.10;15.32;;;;;;;2.62;100.00;100425.03;2616755;36;20415;-57
2022/11/21 06:03:25;;;;;;;47.35;15.23;;;;;;;2.51;100.00;100431.03;2614184;36;20431;-58
2022/11/21 06:04:06;;;;;;;51.30;16.65;;;;;;;2.70;100.00;100437.88;2614516;36;20045;-56
2022/11/21 06:06:35;;;;;;;47.75;16.33;;;;;;;2.72;100.00;100435.97;2614187;36;20022;-56
2022/11/21 06:09:03;;;;;;;49.72;16.33;;;;;;;2.87;100.00;100432.34;2615676;36;20089;-59
2022/11/21 06:11:31;;;;;;;48.17;15.75;;;;;;;2.81;100.00;100419.44;2614759;36;20023;-51
2022/11/21 06:14:00;;;;;;;48.80;16.27;;;;;;;2.90;100.00;100415.31;2615783;36;20034;-53
2022/11/21 06:16:31;;;;;;;48.47;14.95;;;;;;;2.83;100.00;100411.34;2613701;36;20026;-56
2022/11/21 06:18:59;;;;;;;51.88;17.30;;;;;;;2.88;100.00;100403.97;2614788;36;20035;-56
2022/11/21 06:21:33;;;;;;;49.17;14.82;;;;;;;2.86;100.00;100397.91;2615492;36;20041;-53
2022/11/21 06:24:01;;;;;;;47.67;16.20;;;;;;;2.84;100.00;100387.34;2615096;36;20027;-56
2022/11/21 06:26:29;;;;;;;45.28;15.23;;;;;;;2.88;100.00;100386.19;2615480;36;20030;-57
2022/11/21 06:28:58;;;;;;;55.53;16.92;;;;;;;2.75;100.00;100379.97;2615574;36;20061;-56
2022/11/21 06:31:29;;;;;;;44.78;15.60;;;;;;;3.01;100.00;100378.28;2614413;36;20042;-51
2022/11/21 06:34:01;;;;;;;53.20;16.23;;;;;;;3.01;100.00;100382.75;2615152;36;20069;-52
2022/11/21 06:36:29;;;;;;;47.72;17.38;;;;;;;3.10;100.00;100390.13;2616581;36;20625;-57
2022/11/21 06:38:58;;;;;;;46.05;16.73;;;;;;;3.17;100.00;100391.44;2616505;36;20034;-54
2022/11/21 06:41:29;;;;;;;41.03;13.90;;;;;;;3.13;100.00;100379.28;2615865;36;20582;-57
2022/11/21 06:44:01;;;;;;;45.67;15.38;;;;;;;3.08;100.00;100387.56;2615294;36;20040;-53
2022/11/21 06:46:29;;;;;;;44.20;13.90;;;;;;;3.17;100.00;100387.94;2615194;36;20607;-54
2022/11/21 06:49:00;;;;;;;52.20;15.82;;;;;;;3.23;100.00;100392.84;2616722;36;20661;-57
2022/11/21 06:51:28;;;;;;;51.97;17.73;;;;;;;3.23;100.00;100401.69;2615954;36;20027;-54
2022/11/21 06:53:58;;;;;;;47.22;16.27;;;;;;;3.17;100.00;100399.41;2616749;36;20030;-53
2022/11/21 06:56:28;;;;;;;47.17;16.55;;;;;;;3.19;100.00;100410.78;2615532;36;20030;-55
2022/11/21 06:58:56;;;;;;;42.35;15.85;;;;;;;3.27;100.00;100407.66;2615890;36;20435;-58
2022/11/21 07:01:25;;;;;;;46.45;15.45;;;;;;;3.26;100.00;100395.31;2615705;36;20034;-55
2022/11/21 07:03:54;;;;;;;43.17;14.98;;;;;;;3.28;100.00;100396.03;2614430;31;20025;-53
2022/11/21 07:06:26;;;;;;;49.58;15.63;;;;;;;3.29;100.00;100401.25;2613198;36;20045;-57
2022/11/21 07:08:55;;;;;;;43.05;15.52;;;;;;;3.36;100.00;100396.41;2614739;36;20023;-53
2022/11/21 07:11:24;;;;;;;41.40;15.77;;;;;;;3.47;100.00;100404.50;2615435;36;20129;-53
2022/11/21 07:13:49;;;;;;;42.38;14.88;;;;;;;3.56;100.00;100403.06;2615721;36;20045;-55
2022/11/21 07:16:18;;;;;;;42.42;14.57;;;;;;;3.51;100.00;100400.69;2616845;31;20476;-52
2022/11/21 07:18:46;;;;;;;45.13;16.17;;;;;;;3.51;100.00;100408.69;2614604;36;20042;-57
2022/11/21 07:21:15;;;;;;;50.05;16.85;;;;;;;3.45;100.00;100406.44;2615217;31;20117;-54
2022/11/21 07:23:45;;;;;;;47.17;16.70;;;;;;;3.38;100.00;100407.78;2614626;36;20041;-56
2022/11/21 07:26:14;;;;;;;38.28;14.85;;;;;;;3.48;100.00;100397.41;2614221;36;20432;-54
2022/11/21 07:28:42;;;;;;;48.30;16.63;;;;;;;3.48;100.00;100394.75;2616706;36;20022;-54
2022/11/21 07:31:12;;;;;;;43.10;14.87;;;;;;;3.45;100.00;100390.47;2613911;36;20587;-59
2022/11/21 07:33:41;;;;;;;;;;;;;;;3.49;100.00;100386.66;2615123;36;20038;-56
2022/11/21 07:36:10;;;;;;;49.83;16.95;;;;;;;3.64;100.00;100391.91;2612599;36;20424;-54
2022/11/21 07:38:40;;;;;;;47.92;16.70;;;;;;;3.57;100.00;100399.44;2614785;36;20585;-54
2022/11/21 07:41:10;;;;;;;49.00;15.75;;;;;;;3.53;100.00;100387.28;2613710;36;20042;-51
2022/11/21 07:43:39;;;;;;;48.72;16.90;;;;;;;3.29;100.00;100381.81;2614482;36;20022;-55
2022/11/21 07:46:07;;;;;;;50.53;16.15;;;;;;;3.25;100.00;100382.97;2614359;36;20038;-55
2022/11/21 07:48:35;;;;;;;47.95;15.65;;;;;;;3.35;100.00;100378.72;2614726;36;20034;-57
2022/11/21 07:51:06;;;;;;;50.95;16.55;;;;;;;3.36;100.00;100377.78;2615784;36;20428;-54
2022/11/21 07:53:34;;;;;;;44.85;16.10;;;;;;;3.58;100.00;100365.69;2615876;36;20023;-55
2022/11/21 07:56:03;;;;;;;56.80;17.60;;;;;;;3.69;100.00;100365.84;2614436;36;20034;-54
2022/11/21 07:58:34;;;;;;;50.13;16.70;;;;;;;3.73;100.00;100364.66;2613537;36;20658;-56
2022/11/21 08:01:06;;;;;;;45.63;16.75;;;;;;;3.49;100.00;100359.22;2616777;36;20038;-52
2022/11/21 08:03:34;;;;;;;47.92;16.98;;;;;;;3.38;100.00;100351.09;2614916;36;20030;-52
2022/11/21 08:06:04;;;;;;;46.70;15.93;;;;;;;3.50;100.00;100356.44;2615974;31;20035;-56
2022/11/21 08:08:32;;;;;;;;;;;;;;;3.62;100.00;100356.56;2617056;36;20479;-58
2022/11/21 08:11:05;;;;;;;54.35;17.65;;;;;;;3.50;100.00;100355.56;2612323;36;19957;-53
2022/11/21 08:13:36;;;;;;;50.80;17.20;;;;;;;3.63;100.00;100355.59;2608727;36;20042;-54
2022/11/21 08:16:05;;;;;;;48.10;16.73;;;;;;;3.60;100.00;100350.50;2616569;36;20031;-53
2022/11/21 08:18:34;;;;;;;55.42;16.42;;;;;;;3.51;100.00;100346.66;2616816;36;20038;-56
2022/11/21 08:21:03;;;;;;;49.78;17.00;;;;;;;3.39;100.00;100350.97;2616281;36;20053;-54
2022/11/21 08:23:33;;;;;;;61.90;16.67;;;;;;;3.57;100.00;100334.75;2615723;36;20420;-50
2022/11/21 08:26:01;;;;;;;55.55;17.95;;;;;;;3.67;100.00;100335.81;2614515;36;20034;-56
2022/11/21 08:28:29;;;;;;;51.20;18.35;;;;;;;3.85;100.00;100339.84;2615126;36;20534;-56
2022/11/21 08:31:00;;;;;;;51.80;17.60;;;;;;;3.84;100.00;100338.19;2614721;36;20038;-50
2022/11/21 08:33:28;;;;;;;52.95;17.42;;;;;;;3.70;100.00;100327.63;2615820;36;20034;-52
2022/11/21 08:35:57;;;;;;;51.55;17.88;;;;;;;3.58;100.00;100325.78;2614872;36;20045;-51
2022/11/21 08:38:27;;;;;;;40.95;15.25;;;;;;;3.77;100.00;100326.25;2613823;36;20030;-52
2022/11/21 08:43:36;;;;;;;52.92;17.92;;;;;;;4.02;100.00;100324.56;2615528;36;20555;-53
2022/11/21 08:46:07;;;;;;;47.70;16.55;;;;;;;4.07;100.00;100326.88;2615553;36;20038;-52
2022/11/21 08:48:35;;;;;;;52.05;16.55;;;;;;;4.18;100.00;100314.53;2616020;31;20057;-52
2022/11/21 08:51:04;;;;;;;40.80;15.25;;;;;;;4.13;100.00;100315.78;2615291;36;20035;-51
2022/11/21 08:53:32;;;;;;;46.90;16.13;;;;;;;4.13;100.00;100311.31;2616328;36;20018;-55
2022/11/21 08:56:00;;;;;;;45.42;17.17;;;;;;;4.25;100.00;100314.06;2614344;36;20038;-53
2022/11/21 08:58:29;;;;;;;44.67;14.20;;;;;;;4.31;100.00;100309.16;2614619;36;20065;-54
2022/11/21 09:00:57;;;;;;;43.50;15.97;;;;;;;4.36;100.00;100308.84;2614721;31;20038;-53
2022/11/21 09:03:28;;;;;;;40.40;14.18;;;;;;;4.27;100.00;100297.03;2615597;36;20035;-54
2022/11/21 09:05:58;;;;;;;45.33;15.65;;;;;;;4.17;100.00;100288.00;2616060;36;20023;-54
2022/11/21 09:08:26;;;;;;;43.13;15.02;;;;;;;4.34;100.00;100287.66;2616489;31;20417;-52
2022/11/21 09:10:54;;;;;;;40.87;13.73;;;;;;;4.32;100.00;100294.88;2614482;36;20057;-55
2022/11/21 09:13:23;;;;;;;36.63;13.98;;;;;;;4.24;100.00;100293.72;2610006;36;20042;-54
2022/11/21 09:18:35;;;;;;;40.55;15.27;;;;;;;4.16;100.00;100304.94;2615691;36;20046;-51
2022/11/21 09:21:03;;;;;;;41.42;15.10;;;;;;;4.00;100.00;100289.16;2608926;36;20114;-49
2022/11/21 09:23:31;;;;;;;35.80;14.15;;;;;;;4.13;100.00;100284.69;2615934;36;20049;-53
2022/11/21 09:26:01;;;;;;;35.63;15.23;;;;;;;4.26;100.00;100286.50;2615756;36;20022;-54
2022/11/21 09:28:29;;;;;;;45.40;14.95;;;;;;;4.28;100.00;100279.22;2615810;36;20566;-52
2022/11/21 09:30:58;;;;;;;39.60;15.27;;;;;;;4.23;100.00;100274.22;2614604;36;20042;-51
2022/11/21 09:33:26;;;;;;;45.13;15.18;;;;;;;4.59;100.00;100253.03;2615022;36;20570;-53
2022/11/21 09:35:59;;;;;;;42.28;15.73;;;;;;;4.46;100.00;100253.06;2615237;36;20045;-55
2022/11/21 09:38:28;;;;;;;45.13;16.67;;;;;;;4.41;100.00;100252.56;2615730;36;20031;-54
2022/11/21 09:41:50;;;;;;;44.00;14.65;;;;;;;4.61;100.00;100241.28;2615157;36;20031;-54
2022/11/21 09:44:06;;;;;;;40.33;17.25;;;;;;;4.52;100.00;100232.16;2615816;31;20570;-55
2022/11/21 09:46:43;;;;;;;45.30;15.82;;;;;;;4.44;100.00;100223.84;2615520;36;20034;-55
2022/11/21 09:49:15;;;;;;;41.22;15.35;;;;;;;4.62;100.00;100224.31;2614783;36;20436;-52
2022/11/21 09:51:48;;;;;;;36.40;14.65;;;;;;;4.55;100.00;100221.25;2615233;36;20030;-50
2022/11/21 09:54:21;;;;;;;39.30;14.38;;;;;;;4.56;100.00;100212.31;2615004;31;20026;-52
2022/11/21 09:56:51;;;;;;;41.95;16.15;;;;;;;4.59;100.00;100210.38;2614923;36;20114;-54
2022/11/21 09:59:33;;;;;;;37.85;14.40;;;;;;;4.64;100.00;100205.53;2614539;36;20027;-53
2022/11/21 10:02:02;;;;;;;37.38;14.45;;;;;;;4.66;100.00;100200.97;2615780;36;20026;-55
2022/11/21 10:04:30;;;;;;;41.72;15.43;;;;;;;4.72;100.00;100200.50;2613816;31;20539;-54
2022/11/21 10:07:09;;;;;;;37.65;15.60;;;;;;;4.81;100.00;100207.81;2615658;36;20666;-51
2022/11/21 10:09:54;;;;;;;41.20;15.93;;;;;;;4.91;100.00;100202.63;2616037;36;20559;-50
2022/11/21 10:12:39;;;;;;;47.60;16.80;;;;;;;4.83;100.00;100203.22;2615865;36;20030;-56
2022/11/21 10:15:20;;;;;;;36.63;14.90;;;;;;;4.98;100.00;100195.03;2615311;36;20031;-54
2022/11/21 10:18:04;;;;;;;44.58;15.52;;;;;;;5.08;100.00;100185.38;2616899;36;20034;-55
2022/11/21 10:20:51;;;;;;;39.78;15.52;;;;;;;5.49;100.00;100192.00;2617048;36;20042;-54
2022/11/21 10:23:43;;;;;;;41.22;15.70;;;;;;;5.25;100.00;100184.91;2611506;36;20034;-56
2022/11/21 10:26:18;;;;;;;42.20;17.05;;;;;;;5.31;100.00;100186.25;2616607;36;20014;-55
2022/11/21 10:28:53;;;;;;;43.35;15.90;;;;;;;5.66;100.00;100179.13;2617250;36;20034;-55
2022/11/21 10:31:23;;;;;;;41.22;15.88;;;;;;;5.63;100.00;100171.38;2609996;36;20030;-56
2022/11/21 10:33:53;;;;;;;39.72;16.05;;;;;;;5.65;100.00;100169.41;2616567;36;20042;-56
2022/11/21 10:36:28;;;;;;;40.28;15.55;;;;;;;5.60;100.00;100170.63;2616425;36;20035;-51
2022/11/21 10:39:12;;;;;;;39.80;15.55;;;;;;;5.63;100.00;100177.53;2617119;36;20038;-52
2022/11/21 10:41:46;;;;;;;34.38;14.95;;;;;;;5.56;100.00;100162.97;2615673;36;20555;-55
2022/11/21 10:47:26;;;;;;;35.40;15.27;;;;;;;5.63;100.00;100155.34;2616548;31;20049;-54
2022/11/21 10:49:59;;;;;;;38.15;15.07;;;;;;;5.66;100.00;100157.78;2616188;36;20061;-53
2022/11/21 10:52:30;;;;;;;39.40;15.27;;;;;;;5.70;100.00;100154.72;2615777;36;20030;-52
2022/11/21 10:55:12;;;;;;;32.70;14.90;;;;;;;5.66;100.00;100163.13;2616846;36;20042;-56
2022/11/21 10:57:45;;;;;;;34.58;13.95;;;;;;;5.73;100.00;100150.97;2616509;31;20030;-54
2022/11/21 11:00:21;;;;;;;36.70;15.30;;;;;;;5.90;100.00;100158.50;2615744;31;20038;-52
2022/11/21 11:03:07;;;;;;;42.22;17.42;;;;;;;5.99;100.00;100150.72;2616234;36;20217;-54
2022/11/21 11:05:37;;;;;;;54.67;17.83;;;;;;;6.07;100.00;100148.28;2615203;36;21602;-58
2022/11/21 11:08:10;;;;;;;36.70;15.65;;;;;;;6.00;100.00;100139.06;2617700;54;20034;-59
2022/11/21 11:10:44;;;;;;;38.95;15.52;;;;;;;5.93;100.00;100134.19;2615994;36;20034;-52
2022/11/21 11:16:04;;;;;;;36.97;15.25;;;;;;;5.84;100.00;100128.75;2615404;36;20195;-55
2022/11/21 11:18:35;;;;;;;38.88;16.02;;;;;;;6.02;100.00;100124.63;2616567;36;20543;-56
2022/11/21 11:21:19;;;;;;;40.53;15.73;;;;;;;5.99;100.00;100118.66;2616722;54;20138;-56
2022/11/21 11:23:48;;;;;;;44.55;15.77;;;;;;;5.96;100.00;100117.06;2616921;36;20046;-53
2022/11/21 11:26:29;;;;;;;;;;;;;;;5.87;100.00;100115.13;2616173;31;20035;-53
2022/11/21 11:29:10;;;;;;;40.80;15.82;;;;;;;5.90;100.00;100115.75;2618775;36;20344;-56
2022/11/21 11:31:43;;;;;;;41.63;15.80;;;;;;;6.04;100.00;100114.66;2607628;36;20026;-55
2022/11/21 11:34:15;;;;;;;46.92;17.30;;;;;;;6.05;100.00;100104.81;2614560;36;20023;-53
2022/11/21 11:36:56;;;;;;;45.90;16.90;;;;;;;5.85;100.00;100109.09;2607379;36;20052;-48
2022/11/21 11:39:38;;;;;;;40.83;15.88;;;;;;;5.75;100.00;100098.28;2616038;36;20030;-53
2022/11/21 11:48:26;;;;;;;46.00;17.95;;;;;;;5.97;100.00;100079.56;2615085;36;20559;-55